Time;durP1;ratioP1;P1;durP2;ratioP2;P2;SDS_P1;SDS_P2;PMS_P1;PMS_P2;Temp;Humidity;BMP_temperature;BMP_pressure;BME280_temperature;BME280_humidity;BME280_pressure;Samples;Min_cycle;Max_cycle;Signal;HPM_P1;HPM_P2
2022/11/05 00:16:57;;;;;;;7.70;6.77;;;;;;;11.35;57.18;99582.59;10405158;28;20768;-43
2022/11/05 00:27:19;;;;;;;9.20;7.70;;;;;;;12.11;55.01;99563.06;10392902;28;20232;-43
2022/11/05 00:32:20;;;;;;;12.37;7.87;;;;;;;12.90;53.26;99526.75;10406410;28;20681;-43
2022/11/05 00:37:22;;;;;;;10.20;7.63;;;;;;;11.58;55.49;99611.84;10402687;28;20227;-43
2022/11/05 00:53:05;;;;;;;10.87;8.33;;;;;;;13.41;52.46;99554.88;10390915;28;20259;-43
2022/11/05 00:58:19;;;;;;;10.13;8.20;;;;;;;12.86;53.12;99583.78;10402422;28;20248;-42
2022/11/05 01:03:26;;;;;;;10.27;8.33;;;;;;;13.10;53.22;99575.09;10404284;28;20551;-41
2022/11/05 01:08:28;;;;;;;11.40;8.10;;;;;;;12.95;53.02;99597.84;10403339;28;20658;-42
2022/11/05 01:13:29;;;;;;;9.00;7.97;;;;;;;13.00;52.79;99589.97;10373186;28;20690;-42
2022/11/05 01:18:31;;;;;;;8.97;8.07;;;;;;;13.23;52.50;99597.66;10403809;28;20241;-43
2022/11/05 01:23:33;;;;;;;8.73;7.30;;;;;;;12.49;53.38;99666.47;10403038;28;20516;-44
2022/11/05 01:28:34;;;;;;;10.63;7.93;;;;;;;12.78;53.09;99651.91;10401801;28;20228;-42
2022/11/05 01:33:36;;;;;;;14.70;8.60;;;;;;;12.53;54.19;99647.06;10403496;28;20236;-43
2022/11/05 01:38:38;;;;;;;8.50;7.60;;;;;;;12.98;53.04;99626.97;10402753;28;20236;-43
2022/11/05 01:43:58;;;;;;;9.33;8.37;;;;;;;12.36;53.75;99670.72;10376457;28;20773;-42
2022/11/05 01:49:21;;;;;;;9.13;8.23;;;;;;;12.66;53.49;99675.00;10376011;28;20232;-44
2022/11/05 01:54:28;;;;;;;10.67;9.10;;;;;;;13.24;52.47;99618.91;10389171;28;20302;-43
2022/11/05 01:59:39;;;;;;;10.07;7.90;;;;;;;13.10;53.13;99619.94;10388229;28;20238;-43
2022/11/05 02:04:50;;;;;;;10.53;8.40;;;;;;;12.41;54.93;99664.75;10401145;28;20247;-44
2022/11/05 02:10:04;;;;;;;10.27;7.80;;;;;;;12.57;53.04;99674.38;10395596;28;20209;-44
2022/11/05 02:15:06;;;;;;;13.07;7.67;;;;;;;12.90;53.05;99685.19;10393590;28;20239;-44
2022/11/05 02:20:17;;;;;;;11.03;8.90;;;;;;;11.40;56.47;99714.13;10400429;28;20251;-43
2022/11/05 02:25:53;;;;;;;11.70;8.50;;;;;;;11.94;56.49;99660.97;10376155;28;20736;-44
2022/11/05 02:31:16;;;;;;;11.37;7.73;;;;;;;13.24;52.18;99623.47;10399581;28;20239;-44
2022/11/05 02:36:43;;;;;;;8.87;7.97;;;;;;;14.08;50.97;99630.06;10391457;28;20236;-44
2022/11/05 02:42:01;;;;;;;9.67;7.57;;;;;;;13.22;52.42;99685.47;10362795;28;20729;-43
2022/11/05 02:47:22;;;;;;;10.13;8.10;;;;;;;13.84;50.95;99656.56;10370048;28;20240;-44
2022/11/05 02:52:34;;;;;;;10.73;8.23;;;;;;;13.76;51.31;99664.84;10365111;28;20627;-44
2022/11/05 02:57:36;;;;;;;9.90;7.53;;;;;;;11.32;56.35;99749.09;10372003;28;20239;-43
2022/11/05 03:02:38;;;;;;;13.30;9.07;;;;;;;11.62;55.46;99739.13;10380948;28;20248;-44
2022/11/05 03:08:10;;;;;;;10.03;8.20;;;;;;;12.43;54.75;99683.34;10392530;28;20225;-43
2022/11/05 03:13:32;;;;;;;9.17;7.57;;;;;;;12.63;53.33;99689.66;10377600;28;20220;-44
2022/11/05 03:18:47;;;;;;;15.23;8.20;;;;;;;13.31;52.41;99647.69;10398796;28;20240;-42
2022/11/05 03:24:00;;;;;;;10.67;7.77;;;;;;;12.87;52.52;99677.56;10387850;28;20244;-43
2022/11/05 03:29:07;;;;;;;10.83;7.90;;;;;;;13.10;52.55;99679.88;10374304;28;20656;-45
2022/11/05 03:34:12;;;;;;;11.03;8.17;;;;;;;12.90;51.77;99719.28;10389658;28;20610;-44
2022/11/05 03:39:25;;;;;;;10.67;7.87;;;;;;;13.61;51.02;99707.25;10378687;28;20233;-45
2022/11/05 03:44:31;;;;;;;9.83;7.20;;;;;;;11.45;55.23;99788.59;10381804;28;20264;-43
2022/11/05 03:49:49;;;;;;;9.20;7.70;;;;;;;12.10;54.68;99767.16;10406748;28;20240;-41
2022/11/05 03:54:51;;;;;;;9.83;7.97;;;;;;;12.18;53.86;99761.59;10402535;28;20255;-41
2022/11/05 03:59:53;;;;;;;9.53;7.80;;;;;;;12.62;52.81;99751.59;10379626;28;20237;-43
2022/11/05 04:04:55;;;;;;;8.87;7.10;;;;;;;12.00;53.51;99797.78;10391906;28;20713;-45
2022/11/05 04:15:17;;;;;;;7.67;6.70;;;;;;;11.86;53.34;99812.13;10389834;28;20236;-44
2022/11/05 04:25:39;;;;;;;9.33;5.80;;;;;;;10.77;54.30;99817.44;10376218;28;20287;-45
2022/11/05 04:30:43;;;;;;;6.40;4.73;;;;;;;10.62;54.18;99820.06;10403875;28;20236;-40
2022/11/05 04:35:46;;;;;;;5.80;4.97;;;;;;;11.39;52.70;99805.44;10403627;28;20236;-45
2022/11/05 04:40:48;;;;;;;6.83;4.60;;;;;;;10.35;54.22;99829.56;10370774;28;20229;-44
2022/11/05 04:45:50;;;;;;;4.47;4.07;;;;;;;10.92;52.27;99839.66;10393521;28;20237;-46
2022/11/05 04:50:52;;;;;;;4.70;4.23;;;;;;;10.91;53.04;99847.88;10405446;28;20233;-47
2022/11/05 04:55:54;;;;;;;5.13;4.07;;;;;;;14.37;47.66;99763.31;10368881;28;20698;-46
2022/11/05 05:00:55;;;;;;;6.03;3.57;;;;;;;12.30;50.53;99888.84;10375160;28;20243;-45
2022/11/05 05:05:58;;;;;;;7.73;3.90;;;;;;;12.61;50.71;99892.22;10374164;28;20226;-41
2022/11/05 05:11:07;;;;;;;5.87;4.37;;;;;;;11.66;51.90;99903.06;10385686;28;20642;-43
2022/11/05 05:16:22;;;;;;;9.30;5.63;;;;;;;10.94;54.04;99901.06;10400329;28;20239;-43
2022/11/05 05:21:39;;;;;;;9.63;5.67;;;;;;;11.16;54.17;99902.81;10397976;28;20235;-42
2022/11/05 05:26:44;;;;;;;8.17;5.47;;;;;;;11.60;52.51;99895.72;10377956;28;20237;-42
2022/11/05 05:31:46;;;;;;;6.30;5.37;;;;;;;11.94;52.09;99896.97;10398629;28;20244;-44
2022/11/05 05:36:47;;;;;;;6.23;5.30;;;;;;;11.97;52.72;99910.81;10398328;28;20237;-41
2022/11/05 05:41:49;;;;;;;7.10;5.20;;;;;;;11.24;52.91;99905.41;10374585;28;20237;-39
2022/11/05 05:46:53;;;;;;;7.07;4.90;;;;;;;11.46;53.03;99932.28;10384456;28;20238;-41
2022/11/05 05:51:55;;;;;;;5.37;4.53;;;;;;;11.91;52.61;99897.34;10403041;28;20229;-41
2022/11/05 05:56:57;;;;;;;6.37;4.87;;;;;;;10.99;53.89;99942.34;10401589;28;20724;-38
2022/11/05 06:01:59;;;;;;;7.37;5.07;;;;;;;11.23;53.88;99935.03;10394380;28;20237;-41
2022/11/05 06:07:01;;;;;;;6.30;5.37;;;;;;;10.67;53.93;99948.81;10389016;28;20240;-41
2022/11/05 06:12:03;;;;;;;4.93;4.43;;;;;;;10.94;53.17;99958.13;10398357;28;20243;-42
2022/11/05 06:17:06;;;;;;;5.47;3.87;;;;;;;10.73;53.60;99969.50;10383451;28;20279;-41
2022/11/05 06:22:07;;;;;;;5.00;4.00;;;;;;;9.94;54.96;99949.19;10395891;28;20230;-45
2022/11/05 06:27:09;;;;;;;6.67;4.47;;;;;;;10.38;54.07;99960.22;10364316;28;20237;-41
2022/11/05 06:32:11;;;;;;;4.57;3.80;;;;;;;9.90;54.52;99958.53;10391418;28;20240;-40
2022/11/05 06:37:12;;;;;;;5.00;3.90;;;;;;;11.36;51.40;99955.84;10378929;28;20233;-40
2022/11/05 06:42:14;;;;;;;4.37;3.97;;;;;;;10.88;52.17;99982.94;10376348;28;20233;-44
2022/11/05 06:47:19;;;;;;;4.23;3.50;;;;;;;10.96;51.98;99990.88;10380960;28;20225;-42
2022/11/05 06:52:21;;;;;;;3.70;3.40;;;;;;;10.69;51.82;100011.84;10381920;28;20251;-44
2022/11/05 06:57:23;;;;;;;4.00;3.20;;;;;;;12.03;49.97;99975.44;10395242;28;20228;-41
2022/11/05 07:02:24;;;;;;;5.07;4.03;;;;;;;11.68;50.85;100012.78;10368903;28;20233;-43
2022/11/05 07:07:26;;;;;;;4.67;3.60;;;;;;;11.59;50.78;100020.03;10361458;28;20265;-43
2022/11/05 07:12:28;;;;;;;4.20;3.70;;;;;;;12.15;49.18;100047.19;10389127;28;20229;-43
2022/11/05 07:17:30;;;;;;;3.50;3.20;;;;;;;11.86;49.82;100053.44;10391811;28;20229;-43
2022/11/05 07:22:32;;;;;;;3.90;3.60;;;;;;;11.92;48.99;100073.31;10404526;28;20236;-42
2022/11/05 07:27:38;;;;;;;4.83;3.70;;;;;;;12.24;48.69;100079.28;10392972;28;20271;-42
2022/11/05 07:32:40;;;;;;;3.90;3.50;;;;;;;10.94;50.52;100093.84;10407352;28;20251;-42
2022/11/05 07:37:47;;;;;;;3.20;2.90;;;;;;;11.52;50.53;100091.47;10407380;28;20229;-43
2022/11/05 07:42:51;;;;;;;3.20;2.90;;;;;;;10.48;52.02;100110.69;10382564;28;20624;-42
2022/11/05 07:47:55;;;;;;;3.93;3.40;;;;;;;10.55;52.10;100114.31;10399931;28;20231;-46
2022/11/05 07:53:06;;;;;;;4.70;4.13;;;;;;;11.49;50.25;100103.41;10407396;28;20686;-44
2022/11/05 07:58:09;;;;;;;3.50;3.20;;;;;;;11.40;50.52;100118.69;10375178;28;20240;-37
2022/11/05 08:03:16;;;;;;;3.73;3.30;;;;;;;11.97;49.63;100092.34;10379313;28;20240;-38
2022/11/05 08:08:19;;;;;;;5.60;4.70;;;;;;;13.01;48.42;100043.75;10402528;28;20259;-44
2022/11/05 08:13:21;;;;;;;6.20;5.27;;;;;;;12.77;48.01;100140.81;10371168;28;20268;-42
2022/11/05 08:18:30;;;;;;;7.20;4.80;;;;;;;13.25;47.88;100109.66;10377221;28;20240;-42
2022/11/05 08:23:32;;;;;;;6.40;4.60;;;;;;;13.13;48.74;100135.38;10388542;28;20703;-44
2022/11/05 08:28:33;;;;;;;5.07;3.93;;;;;;;13.49;47.56;100102.22;10386935;28;20279;-43
2022/11/05 08:33:35;;;;;;;6.80;4.07;;;;;;;13.40;47.65;100133.78;10378165;28;20250;-45
2022/11/05 08:38:37;;;;;;;5.80;4.33;;;;;;;11.56;49.80;100157.13;10394367;28;20231;-41
2022/11/05 08:43:39;;;;;;;6.73;4.10;;;;;;;12.65;49.07;100178.88;10404188;28;20240;-39
2022/11/05 08:48:40;;;;;;;6.90;3.87;;;;;;;13.06;48.12;100143.38;10397296;28;20250;-42
2022/11/05 08:53:42;;;;;;;5.53;4.23;;;;;;;11.84;49.95;100196.75;10398393;28;20437;-39
2022/11/05 08:58:43;;;;;;;5.57;3.77;;;;;;;13.04;48.48;100141.91;10369332;28;20236;-39
2022/11/05 09:03:45;;;;;;;5.90;4.20;;;;;;;14.64;45.62;100115.22;10375293;28;20229;-42
2022/11/05 09:08:47;;;;;;;4.03;3.47;;;;;;;13.58;47.31;100176.31;10368299;28;20229;-43
2022/11/05 09:13:48;;;;;;;6.13;4.23;;;;;;;13.45;47.70;100158.22;10387301;28;20243;-43
2022/11/05 09:18:51;;;;;;;4.30;3.70;;;;;;;14.36;45.95;100122.38;10390367;28;20649;-43
2022/11/05 09:23:52;;;;;;;6.50;4.40;;;;;;;13.04;48.35;100198.31;10389213;28;20300;-45
2022/11/05 09:28:54;;;;;;;6.10;3.90;;;;;;;13.14;47.96;100201.50;10362270;28;20237;-43
2022/11/05 09:33:56;;;;;;;7.80;4.73;;;;;;;14.11;46.80;100134.69;10351372;28;20616;-45
2022/11/05 09:38:57;;;;;;;7.93;4.20;;;;;;;13.84;47.01;100174.84;10359700;28;20769;-43
2022/11/05 09:44:10;;;;;;;6.97;4.73;;;;;;;13.43;48.08;100197.06;10381504;28;20601;-43
2022/11/05 09:49:25;;;;;;;7.93;4.97;;;;;;;13.20;48.25;100219.56;10372621;28;20476;-44
2022/11/05 09:54:32;;;;;;;6.17;4.67;;;;;;;13.78;47.34;100162.19;10360166;28;20245;-43
2022/11/05 09:59:44;;;;;;;8.53;5.10;;;;;;;12.72;49.17;100222.78;10412901;28;20671;-41
2022/11/05 10:04:49;;;;;;;8.33;5.47;;;;;;;14.42;47.80;100125.28;10411265;28;20251;-41
2022/11/05 10:09:58;;;;;;;7.63;5.47;;;;;;;13.73;47.79;100148.50;10429741;28;20682;-43
2022/11/05 10:15:12;;;;;;;9.13;5.23;;;;;;;13.87;48.27;100150.25;10442852;28;20235;-42
2022/11/05 10:20:35;;;;;;;6.53;4.30;;;;;;;11.77;49.50;100186.75;10433507;28;20243;-41
2022/11/05 10:25:50;;;;;;;7.33;5.13;;;;;;;13.52;48.04;100177.09;10424212;28;20229;-42
2022/11/05 10:31:01;;;;;;;6.73;5.00;;;;;;;13.69;48.56;100155.31;10425193;28;20238;-43
2022/11/05 10:36:06;;;;;;;6.77;4.57;;;;;;;14.13;47.58;100138.81;10418770;28;20590;-41
2022/11/05 10:41:35;;;;;;;9.73;5.80;;;;;;;13.09;49.96;100214.69;10409161;28;20229;-41
2022/11/05 10:46:46;;;;;;;7.30;5.03;;;;;;;12.84;50.89;100231.19;10428892;28;20247;-42
2022/11/05 10:51:54;;;;;;;8.40;5.63;;;;;;;12.31;50.42;100225.09;10432955;28;20228;-40
2022/11/05 10:56:56;;;;;;;9.80;5.70;;;;;;;12.71;49.86;100180.81;10436468;28;20246;-44
2022/11/05 11:06:37;;;;;;;6.93;6.23;;;;;;;10.19;54.39;100122.84;10358774;27;20781;-70
2022/11/05 11:11:41;;;;;;;9.77;5.63;;;;;;;11.13;52.10;100116.63;10351507;28;20739;-67
2022/11/05 11:16:46;;;;;;;7.67;5.93;;;;;;;11.42;52.50;100099.78;10382051;28;20279;-70
2022/11/05 11:22:02;;;;;;;17.80;11.43;;;;;;;11.74;51.55;100106.69;10357714;28;20291;-70
2022/11/05 11:27:09;;;;;;;8.97;6.10;;;;;;;11.61;51.43;100112.66;10367113;28;20246;-70
2022/11/05 11:32:15;;;;;;;11.43;6.67;;;;;;;11.60;52.21;100113.66;10376303;28;20374;-68
2022/11/05 11:37:29;;;;;;;10.17;6.20;;;;;;;11.84;51.38;100103.72;10367113;28;20226;-69
2022/11/05 11:42:35;;;;;;;11.07;7.13;;;;;;;11.63;51.71;100116.00;10370770;28;20243;-69
2022/11/05 11:47:42;;;;;;;11.47;6.20;;;;;;;11.95;51.42;100097.91;10379403;28;20302;-69
2022/11/05 11:52:44;;;;;;;7.30;5.30;;;;;;;11.38;50.70;100144.84;10375067;28;20242;-70
2022/11/05 11:57:51;;;;;;;9.17;5.93;;;;;;;12.07;49.75;100129.63;10361980;28;20213;-70
2022/11/05 12:03:35;;;;;;;17.00;9.27;;;;;;;11.49;50.86;100175.75;10381566;28;20236;-69
2022/11/05 12:09:24;;;;;;;12.13;6.17;;;;;;;10.20;52.46;100166.47;10360556;28;20225;-68
2022/11/05 12:15:14;;;;;;;7.33;4.10;;;;;;;11.05;51.56;100165.69;10231544;28;20666;-67
2022/11/05 12:20:30;;;;;;;6.67;4.20;;;;;;;10.98;50.95;100176.28;10254754;28;20280;-67
2022/11/05 12:25:34;;;;;;;8.17;3.90;;;;;;;9.88;52.44;100173.56;10336319;28;20228;-70
2022/11/05 12:31:19;;;;;;;7.03;4.30;;;;;;;10.76;51.56;100156.53;10350823;28;20956;-70
2022/11/05 12:36:35;;;;;;;7.80;4.70;;;;;;;10.82;51.25;100153.16;10328207;28;20237;-67
2022/11/05 12:41:58;;;;;;;9.67;4.13;;;;;;;9.70;52.16;100190.63;10330700;28;20286;-68
2022/11/05 12:47:20;;;;;;;8.00;5.07;;;;;;;9.11;52.04;100176.56;10346058;28;20237;-70
2022/11/05 12:52:31;;;;;;;6.87;4.17;;;;;;;9.82;50.58;100191.09;10336517;28;20225;-70
2022/11/05 12:57:38;;;;;;;6.93;4.33;;;;;;;9.85;51.00;100190.78;10339156;28;20741;-70
2022/11/05 13:02:55;;;;;;;6.53;3.63;;;;;;;10.18;50.22;100192.56;10325995;28;20652;-69
2022/11/05 13:08:21;;;;;;;6.23;3.63;;;;;;;10.76;49.71;100172.59;10294846;28;20604;-71
2022/11/05 13:13:30;;;;;;;4.10;3.13;;;;;;;11.53;48.13;100150.25;10334693;28;20230;-66
2022/11/05 13:18:45;;;;;;;5.27;3.30;;;;;;;10.02;50.36;100207.63;10317239;28;20248;-69
2022/11/05 13:23:58;;;;;;;5.63;3.60;;;;;;;10.77;49.50;100195.69;10328081;28;20233;-70
2022/11/05 13:29:19;;;;;;;6.10;3.57;;;;;;;10.43;48.97;100204.84;10327997;28;20233;-69
2022/11/05 13:34:20;;;;;;;5.80;3.23;;;;;;;10.50;49.40;100204.97;10330797;28;20505;-70
2022/11/05 13:39:33;;;;;;;7.63;3.67;;;;;;;11.31;48.50;100186.78;10329783;28;20305;-67
2022/11/05 13:44:58;;;;;;;5.33;3.80;;;;;;;11.70;48.02;100159.00;10328285;28;20789;-70
2022/11/05 13:50:28;;;;;;;7.83;4.37;;;;;;;10.50;48.13;100239.75;10335812;28;20757;-71
2022/11/05 13:55:52;;;;;;;4.93;3.83;;;;;;;11.91;46.89;100166.34;10346185;28;20565;-69
2022/11/05 14:01:18;;;;;;;5.77;3.17;;;;;;;11.69;47.92;100177.94;10338528;28;20730;-68
2022/11/05 14:06:33;;;;;;;5.73;3.90;;;;;;;10.90;48.54;100227.25;10343449;28;20238;-68
2022/11/05 14:11:36;;;;;;;7.30;4.20;;;;;;;11.18;48.50;100205.31;10339624;28;20237;-71
2022/11/05 14:16:51;;;;;;;9.47;4.17;;;;;;;10.28;50.16;100241.34;10347342;28;20299;-67
2022/11/05 14:21:54;;;;;;;7.43;4.50;;;;;;;11.54;48.23;100185.91;10350157;28;20307;-71
2022/11/05 14:26:59;;;;;;;6.00;4.10;;;;;;;11.36;48.32;100202.34;10331667;28;20237;-70
2022/11/05 14:32:26;;;;;;;6.73;4.40;;;;;;;11.35;48.21;100219.41;10321010;28;20777;-70
2022/11/05 14:37:29;;;;;;;4.13;3.60;;;;;;;11.50;48.83;100179.28;10278089;28;20238;-68
2022/11/05 14:42:31;;;;;;;5.17;4.13;;;;;;;11.52;48.42;100177.22;10280364;28;20237;-71
2022/11/05 14:47:43;;;;;;;7.27;3.63;;;;;;;10.23;50.63;100230.31;10291295;28;20731;-70
2022/11/05 14:52:54;;;;;;;8.63;4.90;;;;;;;10.02;50.27;100218.31;10288076;28;20246;-70
2022/11/05 14:57:56;;;;;;;7.37;3.90;;;;;;;10.87;49.96;100184.75;10326976;28;20258;-69
2022/11/05 15:03:22;;;;;;;9.00;4.77;;;;;;;11.71;48.32;100203.56;10327452;28;20240;-69
2022/11/05 15:08:31;;;;;;;6.57;4.13;;;;;;;10.73;49.56;100233.63;10325640;28;20276;-70
2022/11/05 15:13:43;;;;;;;7.60;4.87;;;;;;;12.16;47.65;100174.09;10324740;28;20233;-70
2022/11/05 15:18:46;;;;;;;6.40;4.90;;;;;;;10.04;50.40;100223.50;10344538;28;20682;-69
2022/11/05 15:23:52;;;;;;;5.73;4.47;;;;;;;11.85;48.55;100185.84;10346014;28;20303;-70
2022/11/05 15:28:55;;;;;;;6.67;5.13;;;;;;;11.58;49.36;100224.75;10344653;28;20264;-68
2022/11/05 15:34:31;;;;;;;14.13;8.50;;;;;;;12.44;47.55;100176.94;10342838;28;20242;-71
2022/11/05 15:39:40;;;;;;;9.63;5.70;;;;;;;12.25;47.05;100231.19;10306602;28;20392;-69
2022/11/05 15:44:47;;;;;;;7.87;4.90;;;;;;;12.67;46.80;100214.44;10326330;28;20233;-69
2022/11/05 15:49:52;;;;;;;7.83;5.20;;;;;;;12.83;46.18;100210.69;10340990;28;20671;-70
2022/11/05 15:55:13;;;;;;;14.73;7.60;;;;;;;12.41;47.19;100257.84;10344275;28;20229;-70
2022/11/05 16:00:18;;;;;;;6.57;4.20;;;;;;;11.63;47.97;100271.47;10334903;28;20296;-71
2022/11/05 16:05:20;;;;;;;7.93;4.50;;;;;;;11.16;48.04;100259.03;10338553;28;20233;-71
2022/11/05 16:10:27;;;;;;;6.40;4.33;;;;;;;9.92;49.85;100263.09;10337914;28;20230;-69
2022/11/05 16:15:31;;;;;;;8.00;4.17;;;;;;;10.58;49.42;100257.63;10339760;28;20817;-66
2022/11/05 16:20:37;;;;;;;5.43;4.83;;;;;;;10.79;48.57;100257.91;10341034;28;20241;-67
2022/11/05 16:25:42;;;;;;;7.83;4.57;;;;;;;10.77;47.98;100256.41;10336897;28;20249;-67
2022/11/05 16:31:00;;;;;;;6.77;4.77;;;;;;;9.88;49.36;100259.94;10336781;28;20245;-68
2022/11/05 16:36:01;;;;;;;9.60;4.33;;;;;;;10.69;48.68;100259.91;10340001;28;20283;-67
2022/11/05 16:41:03;;;;;;;8.87;6.10;;;;;;;11.44;47.33;100234.44;10349414;28;20233;-68
2022/11/05 16:46:05;;;;;;;8.80;5.83;;;;;;;11.96;46.36;100265.00;10344190;28;20229;-69
2022/11/05 16:51:09;;;;;;;10.67;6.00;;;;;;;12.49;45.94;100222.06;10351101;28;20283;-68
2022/11/05 16:56:20;;;;;;;8.37;5.10;;;;;;;12.49;45.71;100271.19;10340704;28;20281;-65
2022/11/05 17:01:23;;;;;;;11.53;7.77;;;;;;;10.76;48.46;100292.22;10354307;28;20286;-69
2022/11/05 17:06:25;;;;;;;8.30;4.90;;;;;;;10.88;47.77;100309.56;10349283;28;20299;-66
2022/11/05 17:11:26;;;;;;;8.07;4.83;;;;;;;10.86;47.47;100304.38;10356756;28;20283;-69
2022/11/05 17:16:29;;;;;;;5.30;4.27;;;;;;;12.33;45.65;100265.97;10333207;28;20232;-68
2022/11/05 17:21:30;;;;;;;6.53;4.83;;;;;;;11.42;46.71;100327.53;10329132;28;20237;-70
2022/11/05 17:26:33;;;;;;;10.63;5.93;;;;;;;10.56;48.57;100321.19;10326588;28;20950;-68
2022/11/05 17:31:34;;;;;;;7.20;4.23;;;;;;;10.44;48.39;100313.50;10292043;28;20241;-66
2022/11/05 17:36:36;;;;;;;10.30;5.77;;;;;;;10.73;47.52;100330.84;10314363;28;20242;-68
2022/11/05 17:41:38;;;;;;;7.87;4.40;;;;;;;9.85;49.17;100312.91;10359094;28;20725;-68
2022/11/05 17:46:40;;;;;;;7.93;5.33;;;;;;;11.67;47.24;100263.09;10356467;28;20245;-69
2022/11/05 17:51:41;;;;;;;7.83;4.60;;;;;;;9.77;49.13;100311.88;10321955;28;20233;-69
2022/11/05 17:56:43;;;;;;;12.73;4.90;;;;;;;10.79;48.37;100315.97;10324684;28;20292;-69
2022/11/05 18:01:45;;;;;;;13.27;7.90;;;;;;;11.49;46.92;100288.31;10300633;28;20243;-70
2022/11/05 18:06:47;;;;;;;9.67;6.00;;;;;;;11.58;46.87;100311.34;10275826;28;20705;-68
2022/11/05 18:11:49;;;;;;;16.87;11.70;;;;;;;11.79;46.72;100304.53;10306444;28;20241;-68
2022/11/05 18:16:51;;;;;;;9.83;6.57;;;;;;;10.99;47.76;100344.00;10315004;28;20249;-70
2022/11/05 18:21:53;;;;;;;8.80;5.23;;;;;;;9.64;49.97;100303.50;10326228;28;20652;-67
2022/11/05 18:26:55;;;;;;;14.93;8.50;;;;;;;9.77;50.93;100290.50;10349784;28;20249;-72
2022/11/05 18:31:56;;;;;;;8.87;6.17;;;;;;;9.89;50.07;100295.53;10347066;28;20244;-67
2022/11/05 18:36:58;;;;;;;11.87;6.10;;;;;;;10.37;49.35;100301.81;10344631;28;20244;-67
2022/11/05 18:42:00;;;;;;;9.30;7.10;;;;;;;10.69;48.45;100308.09;10324593;28;20242;-70
2022/11/05 18:47:02;;;;;;;15.23;7.13;;;;;;;11.71;47.19;100284.00;10337320;28;20781;-71
2022/11/05 18:52:04;;;;;;;11.97;7.77;;;;;;;11.04;47.92;100322.06;10347994;28;20279;-69
2022/11/05 18:57:05;;;;;;;9.33;6.77;;;;;;;11.46;47.04;100307.44;10332989;28;20244;-70
2022/11/05 19:02:09;;;;;;;11.20;7.43;;;;;;;11.85;47.03;100295.78;10351657;28;20241;-70
2022/11/05 19:07:11;;;;;;;11.20;8.27;;;;;;;10.64;48.50;100326.53;10341889;28;20240;-69
2022/11/05 19:12:13;;;;;;;12.37;9.50;;;;;;;10.49;48.43;100326.38;10350126;28;20245;-70
2022/11/05 19:17:14;;;;;;;13.40;10.17;;;;;;;10.08;50.22;100313.91;10342590;28;20276;-71
2022/11/05 19:22:16;;;;;;;17.70;11.80;;;;;;;10.73;49.24;100297.88;10337975;28;20240;-66
2022/11/05 19:27:19;;;;;;;14.63;11.53;;;;;;;10.29;49.62;100304.50;10353100;28;20702;-68
2022/11/05 19:32:20;;;;;;;17.80;12.73;;;;;;;10.44;49.67;100286.75;10327118;28;20634;-66
2022/11/05 19:37:22;;;;;;;26.50;19.77;;;;;;;11.20;47.97;100275.59;10319750;28;20241;-66
2022/11/05 19:42:25;;;;;;;27.47;20.97;;;;;;;9.57;51.24;100276.63;10324970;28;20240;-66
2022/11/05 19:47:26;;;;;;;24.57;14.20;;;;;;;9.92;49.54;100305.88;10334165;28;20233;-66
2022/11/05 19:52:31;;;;;;;16.23;13.63;;;;;;;10.41;49.60;100284.44;10347429;28;20288;-67
2022/11/05 19:57:34;;;;;;;16.63;11.50;;;;;;;9.77;49.82;100295.84;10349282;28;20233;-66
2022/11/05 20:02:36;;;;;;;16.47;11.97;;;;;;;9.14;51.36;100278.53;10333878;28;20232;-66
2022/11/05 20:07:38;;;;;;;18.67;11.30;;;;;;;8.46;53.07;100264.22;10345269;28;20236;-66
2022/11/05 20:12:40;;;;;;;15.40;11.67;;;;;;;9.38;51.60;100260.88;10309794;28;20242;-71
2022/11/05 20:17:41;;;;;;;19.17;11.73;;;;;;;10.08;50.09;100241.72;10298431;28;20238;-66
2022/11/05 20:22:43;;;;;;;12.40;9.83;;;;;;;9.87;50.60;100246.75;10291552;28;20230;-69
2022/11/05 20:27:45;;;;;;;11.70;9.70;;;;;;;10.99;47.77;100225.34;10325440;28;20237;-67
2022/11/05 20:32:52;;;;;;;11.47;9.00;;;;;;;10.39;49.09;100261.53;10336332;28;20237;-65
2022/11/05 20:37:54;;;;;;;11.23;9.63;;;;;;;10.63;48.39;100269.50;10333758;28;20661;-67
2022/11/05 20:42:55;;;;;;;13.40;9.93;;;;;;;10.45;48.58;100274.22;10343305;28;20232;-68
2022/11/05 20:47:57;;;;;;;16.40;10.57;;;;;;;9.68;49.23;100298.66;10350274;28;20288;-67
2022/11/05 20:52:59;;;;;;;13.20;10.10;;;;;;;10.13;48.38;100294.69;10345268;28;20706;-66
2022/11/05 20:58:00;;;;;;;15.20;11.87;;;;;;;10.21;48.44;100302.69;10334836;28;20713;-67
2022/11/05 21:03:02;;;;;;;18.37;12.53;;;;;;;9.95;49.47;100301.03;10335701;28;20288;-68
2022/11/05 21:08:04;;;;;;;23.60;13.37;;;;;;;9.68;49.97;100315.53;10307154;28;20237;-69
2022/11/05 21:13:06;;;;;;;20.00;14.33;;;;;;;9.57;50.14;100297.16;10315827;28;20238;-67
2022/11/05 21:18:07;;;;;;;14.30;11.03;;;;;;;9.66;50.71;100268.63;10295852;28;20227;-65
2022/11/05 21:23:10;;;;;;;13.97;10.17;;;;;;;8.88;52.89;100280.47;10316080;28;20234;-64
2022/11/05 21:28:13;;;;;;;12.73;9.93;;;;;;;9.54;51.05;100242.22;10344248;28;20238;-66
2022/11/05 21:33:17;;;;;;;13.73;9.07;;;;;;;10.17;50.24;100223.81;10350717;28;20237;-66
2022/11/05 21:38:18;;;;;;;12.60;10.23;;;;;;;10.73;48.60;100223.78;10347932;28;20287;-67
2022/11/05 21:43:20;;;;;;;13.03;10.53;;;;;;;9.38;50.25;100283.13;10349883;28;20288;-68
2022/11/05 21:48:21;;;;;;;13.07;9.60;;;;;;;10.51;48.42;100246.75;10341330;28;20234;-67
2022/11/05 22:04:06;;;;;;;13.80;10.80;;;;;;;9.00;50.89;100297.88;10345947;28;20248;-68
2022/11/05 22:09:07;;;;;;;15.07;11.13;;;;;;;9.02;52.01;100275.34;10353827;28;20261;-67
2022/11/05 22:14:09;;;;;;;14.53;11.07;;;;;;;8.85;52.56;100273.59;10347501;28;20240;-69
2022/11/05 22:19:11;;;;;;;15.00;10.57;;;;;;;9.56;50.81;100245.53;10343918;28;20819;-66
2022/11/05 22:24:13;;;;;;;15.83;10.20;;;;;;;9.33;51.22;100255.22;10332459;28;20305;-66
2022/11/05 22:29:15;;;;;;;17.03;12.90;;;;;;;8.84;51.83;100255.88;10354420;28;20265;-66
2022/11/05 22:34:17;;;;;;;17.77;11.97;;;;;;;9.46;51.40;100223.50;10350379;28;20292;-67
2022/11/05 22:39:19;;;;;;;15.83;11.70;;;;;;;9.58;50.60;100230.22;10351908;28;20241;-66
2022/11/05 22:44:21;;;;;;;16.93;12.57;;;;;;;9.69;50.59;100207.66;10356514;28;20237;-67
2022/11/05 22:49:23;;;;;;;17.03;13.70;;;;;;;8.63;51.85;100248.31;10327973;28;20238;-68
2022/11/05 22:54:24;;;;;;;16.27;13.70;;;;;;;8.45;52.68;100237.72;10329280;28;20291;-68
2022/11/05 22:59:26;;;;;;;20.37;14.70;;;;;;;8.31;53.17;100235.66;10346492;28;20275;-68
2022/11/05 23:04:27;;;;;;;17.50;13.87;;;;;;;8.36;52.91;100228.84;10330223;28;20248;-66
2022/11/05 23:14:54;;;;;;;17.43;13.43;;;;;;;9.00;51.95;100177.75;10340521;28;20288;-66
2022/11/05 23:25:19;;;;;;;17.33;11.53;;;;;;;9.62;50.82;100163.06;10300756;28;20236;-65
2022/11/05 23:30:24;;;;;;;14.03;10.80;;;;;;;6.74;56.91;100178.41;10293173;28;20206;-66
2022/11/05 23:51:28;;;;;;;15.53;13.03;;;;;;;8.74;52.69;100169.81;10297704;28;20237;-67
2022/11/05 23:56:30;;;;;;;18.13;13.00;;;;;;;9.24;51.71;100157.41;10324673;28;20271;-69
